Terminal Aerodrome Forecast
Issued by NWS

Home | Current Version | Previous Version | Text Only | Print | Product List | Glossary On
Versions: 1 2 3 4 5 6 7 8 9 10 11 12 13
000
FTUS44 KOUN 300524
TAFWWR
TAF
KWWR 300524Z 3006/3106 02005KT P6SM SCT030 BKN090
     FM301000 VRB05KT P6SM VCSH BKN050
     FM302100 05003KT P6SM BKN100
      TEMPO 3021/3024 P6SM TS BKN050CB
     FM310000 04003KT P6SM BKN100 PROB30 3100/3103 P6SM TS BKN050CB
      AMD NOT SKED=

USA.gov is the U.S. government's official web portal to all federal, state and local government web resources and services.